Time;durP1;ratioP1;P1;durP2;ratioP2;P2;SDS_P1;SDS_P2;PMS_P1;PMS_P2;Temp;Humidity;BMP_temperature;BMP_pressure;BME280_temperature;BME280_humidity;BME280_pressure;Samples;Min_cycle;Max_cycle;Signal;HPM_P1;HPM_P2
2022/11/10 00:01:53;;;;;;;31.02;18.60;;;;;;;;;;6247063;23;20066;-89
2022/11/10 00:04:37;;;;;;;25.63;17.58;;;;;;;;;;6268423;22;20019;-89
2022/11/10 00:07:24;;;;;;;26.77;17.88;;;;;;;;;;6246256;23;20524;-89
2022/11/10 00:10:09;;;;;;;27.35;17.70;;;;;;;;;;6268362;22;20023;-88
2022/11/10 00:12:52;;;;;;;28.13;17.83;;;;;;;;;;6246592;23;20101;-89
2022/11/10 00:18:39;;;;;;;26.27;16.33;;;;;;;;;;6263539;22;20111;-88
2022/11/10 00:21:23;;;;;;;25.15;16.77;;;;;;;;;;6245642;23;20414;-88
2022/11/10 00:24:07;;;;;;;26.42;17.23;;;;;;;;;;6245441;23;20074;-88
2022/11/10 00:26:51;;;;;;;24.95;16.52;;;;;;;;;;6247113;23;20403;-87
2022/11/10 00:29:35;;;;;;;24.27;15.95;;;;;;;;;;6245891;23;20081;-88
2022/11/10 00:32:19;;;;;;;23.92;16.25;;;;;;;;;;6245859;23;20360;-88
2022/11/10 00:35:03;;;;;;;25.15;16.08;;;;;;;;;;6267461;22;20031;-88
2022/11/10 00:37:48;;;;;;;23.67;15.55;;;;;;;;;;6267282;22;20027;-88
2022/11/10 00:40:32;;;;;;;22.55;15.05;;;;;;;;;;6245971;23;20023;-88
2022/11/10 00:43:16;;;;;;;24.15;15.30;;;;;;;;;;6267718;22;20019;-87
2022/11/10 00:46:00;;;;;;;29.35;15.75;;;;;;;;;;6245800;23;20058;-88
2022/11/10 00:48:44;;;;;;;25.27;16.45;;;;;;;;;;6267165;22;20103;-88
2022/11/10 00:51:28;;;;;;;24.23;15.18;;;;;;;;;;6267402;22;20078;-88
2022/11/10 00:54:12;;;;;;;22.42;14.90;;;;;;;;;;6245755;23;20019;-87
2022/11/10 00:56:56;;;;;;;24.42;15.57;;;;;;;;;;6245492;23;20150;-88
2022/11/10 00:59:40;;;;;;;20.58;14.05;;;;;;;;;;6267185;22;20031;-85
2022/11/10 01:02:23;;;;;;;23.77;14.43;;;;;;;;;;6223599;23;20035;-88
2022/11/10 01:05:08;;;;;;;21.35;13.75;;;;;;;;;;6244747;23;20027;-88
2022/11/10 01:07:52;;;;;;;22.67;13.70;;;;;;;;;;6267114;22;20061;-89
2022/11/10 01:10:36;;;;;;;20.83;13.70;;;;;;;;;;6245048;23;20069;-87
2022/11/10 01:13:20;;;;;;;19.67;13.85;;;;;;;;;;6244121;23;20023;-87
2022/11/10 01:16:07;;;;;;;21.10;13.18;;;;;;;;;;6244895;23;20023;-87
2022/11/10 01:18:52;;;;;;;21.30;14.25;;;;;;;;;;6266395;22;20111;-86
2022/11/10 01:21:36;;;;;;;20.23;13.60;;;;;;;;;;6266937;22;20351;-88
2022/11/10 01:24:20;;;;;;;18.55;12.18;;;;;;;;;;6266183;22;20019;-87
2022/11/10 01:27:04;;;;;;;21.67;13.07;;;;;;;;;;6266980;22;20069;-88
2022/11/10 01:29:48;;;;;;;19.77;12.63;;;;;;;;;;6267319;22;20027;-87
2022/11/10 01:32:32;;;;;;;17.58;11.63;;;;;;;;;;6245656;23;20022;-88
2022/11/10 01:35:16;;;;;;;15.38;11.00;;;;;;;;;;6245361;23;20146;-88
2022/11/10 01:38:00;;;;;;;17.05;10.95;;;;;;;;;;6245517;23;20046;-87
2022/11/10 01:40:44;;;;;;;20.90;10.95;;;;;;;;;;6245443;23;20023;-88
2022/11/10 01:43:28;;;;;;;16.38;10.90;;;;;;;;;;6266333;22;20168;-88
2022/11/10 01:46:12;;;;;;;17.92;11.10;;;;;;;;;;6245717;23;20019;-88
2022/11/10 01:48:58;;;;;;;18.65;11.20;;;;;;;;;;6266418;22;20486;-87
2022/11/10 01:51:56;;;;;;;18.70;10.35;;;;;;;;;;6266495;22;20023;-88
2022/11/10 01:54:41;;;;;;;18.98;10.30;;;;;;;;;;6267034;22;20039;-88
2022/11/10 01:57:25;;;;;;;21.23;11.75;;;;;;;;;;6266705;22;20130;-89
2022/11/10 02:00:09;;;;;;;18.02;10.68;;;;;;;;;;6245252;23;20364;-88
2022/11/10 02:03:00;;;;;;;20.08;11.73;;;;;;;;;;6267355;22;20022;-89
2022/11/10 02:05:44;;;;;;;16.10;10.18;;;;;;;;;;6266779;22;20095;-88
2022/11/10 02:08:28;;;;;;;15.68;10.20;;;;;;;;;;6266751;22;20070;-87
2022/11/10 02:11:12;;;;;;;18.50;10.68;;;;;;;;;;6245259;23;20027;-88
2022/11/10 02:13:56;;;;;;;17.73;10.07;;;;;;;;;;6245147;23;20694;-88
2022/11/10 02:16:40;;;;;;;15.52;10.82;;;;;;;;;;6245906;23;20054;-88
2022/11/10 02:19:26;;;;;;;16.23;9.90;;;;;;;;;;6266242;22;20022;-88
2022/11/10 02:22:10;;;;;;;15.65;9.65;;;;;;;;;;6266347;22;20023;-88
2022/11/10 02:24:54;;;;;;;16.92;10.65;;;;;;;;;;6265984;22;20395;-88
2022/11/10 02:27:38;;;;;;;17.15;10.00;;;;;;;;;;6266335;22;20027;-88
2022/11/10 02:30:22;;;;;;;18.90;10.30;;;;;;;;;;6266213;22;20023;-87
2022/11/10 02:33:05;;;;;;;15.48;10.30;;;;;;;;;;6267179;22;20126;-88
2022/11/10 02:35:49;;;;;;;17.25;10.02;;;;;;;;;;6265779;22;20058;-88
2022/11/10 02:38:33;;;;;;;21.90;10.93;;;;;;;;;;6266048;22;20517;-88
2022/11/10 02:41:17;;;;;;;18.83;10.63;;;;;;;;;;6244224;23;20095;-88
2022/11/10 02:44:01;;;;;;;17.50;9.98;;;;;;;;;;6245604;23;20518;-88
2022/11/10 02:46:45;;;;;;;16.70;10.57;;;;;;;;;;6265901;22;20019;-88
2022/11/10 02:49:29;;;;;;;17.92;10.38;;;;;;;;;;6244959;23;20486;-87
2022/11/10 02:52:13;;;;;;;17.65;10.32;;;;;;;;;;6266435;22;20023;-88
2022/11/10 02:54:57;;;;;;;16.25;9.57;;;;;;;;;;6244741;23;20079;-87
2022/11/10 02:57:41;;;;;;;17.13;10.23;;;;;;;;;;6266283;22;20458;-88
2022/11/10 03:00:25;;;;;;;17.38;10.68;;;;;;;;;;6244315;23;20091;-87
2022/11/10 03:03:09;;;;;;;19.52;10.20;;;;;;;;;;6244631;23;20395;-87
2022/11/10 03:05:53;;;;;;;19.05;10.80;;;;;;;;;;6223584;23;20066;-87
2022/11/10 03:08:38;;;;;;;16.08;9.80;;;;;;;;;;6245859;23;20223;-87
2022/11/10 03:11:22;;;;;;;17.13;10.15;;;;;;;;;;6223008;23;20046;-89
2022/11/10 03:14:06;;;;;;;16.67;10.88;;;;;;;;;;6244590;23;20486;-87
2022/11/10 03:16:50;;;;;;;19.05;10.30;;;;;;;;;;6245187;23;20023;-89
2022/11/10 03:19:34;;;;;;;20.45;11.25;;;;;;;;;;6223186;23;20023;-88
2022/11/10 03:22:18;;;;;;;16.27;10.02;;;;;;;;;;6222944;23;20027;-89
2022/11/10 03:25:02;;;;;;;17.77;10.73;;;;;;;;;;6244682;23;20022;-89
2022/11/10 03:27:46;;;;;;;22.20;12.02;;;;;;;;;;6244075;23;20403;-87
2022/11/10 03:30:30;;;;;;;19.00;11.48;;;;;;;;;;6244950;23;20361;-89
2022/11/10 03:33:14;;;;;;;17.98;10.85;;;;;;;;;;6244532;23;20405;-89
2022/11/10 03:35:58;;;;;;;16.73;10.07;;;;;;;;;;6243987;23;20074;-87
2022/11/10 03:38:42;;;;;;;20.10;12.18;;;;;;;;;;6244553;23;20062;-89
2022/11/10 03:41:26;;;;;;;19.38;12.57;;;;;;;;;;6244728;23;20022;-89
2022/11/10 03:44:09;;;;;;;18.10;12.32;;;;;;;;;;6244902;23;20062;-89
2022/11/10 03:46:53;;;;;;;17.85;11.98;;;;;;;;;;6244624;23;20019;-89
2022/11/10 03:49:37;;;;;;;22.63;12.30;;;;;;;;;;6222832;23;20027;-87
2022/11/10 03:52:21;;;;;;;17.73;11.88;;;;;;;;;;6244384;23;20025;-88
2022/11/10 03:55:05;;;;;;;20.58;13.02;;;;;;;;;;6223067;23;20027;-88
2022/11/10 03:57:49;;;;;;;20.70;12.95;;;;;;;;;;6244822;23;20332;-88
2022/11/10 04:00:34;;;;;;;20.38;12.85;;;;;;;;;;6244111;23;20031;-88
2022/11/10 04:03:17;;;;;;;19.85;12.77;;;;;;;;;;6244282;23;20073;-87
2022/11/10 04:09:04;;;;;;;20.77;12.20;;;;;;;;;;6244479;23;20039;-89
2022/11/10 04:17:54;;;;;;;20.88;12.93;;;;;;;;;;6244492;23;20019;-88
2022/11/10 04:20:38;;;;;;;22.42;13.73;;;;;;;;;;6244630;23;20027;-88
2022/11/10 04:23:25;;;;;;;21.73;14.55;;;;;;;;;;6243831;23;20023;-89
2022/11/10 04:26:29;;;;;;;23.30;13.95;;;;;;;;;;6246049;23;20049;-88
2022/11/10 04:29:13;;;;;;;23.33;13.82;;;;;;;;;;6244790;23;20498;-89
2022/11/10 04:31:57;;;;;;;22.08;14.65;;;;;;;;;;6243590;23;20019;-89
2022/11/10 04:34:41;;;;;;;23.63;14.07;;;;;;;;;;6246591;23;20026;-87
2022/11/10 04:37:25;;;;;;;27.15;15.15;;;;;;;;;;6244636;23;20023;-89
2022/11/10 04:40:09;;;;;;;27.10;16.20;;;;;;;;;;6246416;23;20026;-90
2022/11/10 04:42:53;;;;;;;25.08;16.08;;;;;;;;;;6247693;23;20119;-88
2022/11/10 04:45:37;;;;;;;24.45;16.05;;;;;;;;;;6246563;23;20023;-89
2022/11/10 04:48:21;;;;;;;29.50;16.48;;;;;;;;;;6247715;23;20147;-90
2022/11/10 04:51:05;;;;;;;28.05;16.58;;;;;;;;;;6246979;23;20023;-88
2022/11/10 04:53:49;;;;;;;27.40;16.30;;;;;;;;;;6246113;23;20066;-89
2022/11/10 04:56:34;;;;;;;29.27;17.05;;;;;;;;;;6246896;23;20026;-88
2022/11/10 04:59:18;;;;;;;32.63;17.85;;;;;;;;;;6263981;22;20094;-90
2022/11/10 05:02:02;;;;;;;28.58;16.85;;;;;;;;;;6277805;22;20022;-89
2022/11/10 05:04:46;;;;;;;29.58;18.08;;;;;;;;;;6277720;22;20089;-88
2022/11/10 05:07:30;;;;;;;30.83;18.70;;;;;;;;;;6277207;22;20022;-90
2022/11/10 05:10:14;;;;;;;34.22;18.67;;;;;;;;;;6278271;22;20022;-89
2022/11/10 05:12:58;;;;;;;31.05;20.17;;;;;;;;;;6278559;22;20137;-88
2022/11/10 05:15:42;;;;;;;30.05;18.80;;;;;;;;;;6278315;22;20027;-90
2022/11/10 05:18:26;;;;;;;34.42;19.90;;;;;;;;;;6278497;22;20023;-87
2022/11/10 05:21:10;;;;;;;34.28;19.88;;;;;;;;;;6277660;22;20331;-85
2022/11/10 05:23:55;;;;;;;39.47;21.38;;;;;;;;;;6255569;22;20331;-90
2022/11/10 05:26:39;;;;;;;30.85;19.25;;;;;;;;;;6276819;22;20046;-85
2022/11/10 05:29:23;;;;;;;33.15;19.88;;;;;;;;;;6277376;22;20049;-84
2022/11/10 05:32:07;;;;;;;40.55;21.85;;;;;;;;;;6275950;22;20038;-87
2022/11/10 05:34:51;;;;;;;36.58;20.33;;;;;;;;;;6277241;22;20089;-87
2022/11/10 05:37:38;;;;;;;35.22;20.08;;;;;;;;;;6274253;22;20026;-87
2022/11/10 05:40:22;;;;;;;;;;;;;;;;;;6274597;22;20061;-86
2022/11/10 05:43:06;;;;;;;35.17;20.02;;;;;;;;;;6275703;22;19914;-88
2022/11/10 05:45:50;;;;;;;35.25;20.02;;;;;;;;;;6273766;22;20374;-88
2022/11/10 05:48:34;;;;;;;38.20;20.23;;;;;;;;;;6273719;22;20018;-88
2022/11/10 05:51:18;;;;;;;32.42;19.58;;;;;;;;;;6252118;22;20060;-87
2022/11/10 05:54:03;;;;;;;36.30;20.48;;;;;;;;;;6273801;22;20074;-87
2022/11/10 05:56:47;;;;;;;37.13;21.30;;;;;;;;;;6274110;22;20023;-86
2022/11/10 05:59:30;;;;;;;34.00;20.48;;;;;;;;;;6264733;22;20035;-86
2022/11/10 06:02:14;;;;;;;36.58;20.90;;;;;;;;;;6264267;22;20019;-86
2022/11/10 06:04:58;;;;;;;33.15;19.63;;;;;;;;;;6265397;22;20050;-86
2022/11/10 06:07:42;;;;;;;31.73;19.30;;;;;;;;;;6264782;22;20042;-86
2022/11/10 06:10:26;;;;;;;37.13;20.55;;;;;;;;;;6264687;22;20360;-87
2022/11/10 06:13:10;;;;;;;34.10;19.92;;;;;;;;;;6264800;22;20111;-86
2022/11/10 06:15:54;;;;;;;31.98;18.58;;;;;;;;;;6264859;22;20023;-88
2022/11/10 06:18:38;;;;;;;33.13;19.73;;;;;;;;;;6264907;22;20138;-88
2022/11/10 06:21:22;;;;;;;30.88;18.83;;;;;;;;;;6242366;23;20023;-87
2022/11/10 06:24:06;;;;;;;34.10;20.25;;;;;;;;;;6264640;22;20023;-87
2022/11/10 06:26:50;;;;;;;32.58;19.15;;;;;;;;;;6264138;22;20023;-87
2022/11/10 06:29:34;;;;;;;31.02;18.83;;;;;;;;;;6264400;22;20083;-88
2022/11/10 06:32:18;;;;;;;31.52;19.40;;;;;;;;;;6264967;22;20026;-87
2022/11/10 06:35:02;;;;;;;30.73;18.70;;;;;;;;;;6244420;23;20026;-88
2022/11/10 06:37:55;;;;;;;34.50;19.63;;;;;;;;;;6264347;22;20082;-87
2022/11/10 06:40:39;;;;;;;34.92;20.20;;;;;;;;;;6263398;22;20027;-87
2022/11/10 06:43:23;;;;;;;30.90;19.70;;;;;;;;;;6264792;22;20558;-87
2022/11/10 06:46:07;;;;;;;32.35;19.33;;;;;;;;;;6264433;22;20099;-87
2022/11/10 06:48:51;;;;;;;33.22;19.02;;;;;;;;;;6264397;22;20035;-86
2022/11/10 06:51:34;;;;;;;32.00;18.50;;;;;;;;;;6263863;22;20042;-87
2022/11/10 06:54:18;;;;;;;31.85;18.90;;;;;;;;;;6263731;22;20027;-87
2022/11/10 06:57:02;;;;;;;33.28;20.58;;;;;;;;;;6264109;22;20078;-85
2022/11/10 06:59:46;;;;;;;37.65;21.08;;;;;;;;;;6263601;22;20030;-86
2022/11/10 07:02:30;;;;;;;30.48;19.67;;;;;;;;;;6264073;22;20023;-88
2022/11/10 07:05:14;;;;;;;28.70;17.92;;;;;;;;;;6263870;22;20058;-88
2022/11/10 07:08:03;;;;;;;30.48;19.23;;;;;;;;;;6263975;22;20019;-88
2022/11/10 07:10:50;;;;;;;28.08;17.25;;;;;;;;;;6264038;22;20360;-87
2022/11/10 07:13:34;;;;;;;29.98;18.75;;;;;;;;;;6263859;22;20360;-87
2022/11/10 07:16:18;;;;;;;28.98;18.25;;;;;;;;;;6263673;22;20390;-87
2022/11/10 07:19:02;;;;;;;29.08;18.33;;;;;;;;;;6263538;22;20023;-88
2022/11/10 07:21:46;;;;;;;29.25;18.75;;;;;;;;;;6263411;22;20023;-88
2022/11/10 07:24:31;;;;;;;31.80;19.48;;;;;;;;;;6263441;22;20348;-87
2022/11/10 07:27:15;;;;;;;30.85;17.85;;;;;;;;;;6264217;22;20023;-88
2022/11/10 07:29:59;;;;;;;30.15;19.15;;;;;;;;;;6242296;23;20066;-89
2022/11/10 07:32:43;;;;;;;32.40;19.40;;;;;;;;;;6263739;22;20070;-87
2022/11/10 07:35:27;;;;;;;30.92;19.27;;;;;;;;;;6263873;22;20352;-87
2022/11/10 07:38:11;;;;;;;29.77;18.80;;;;;;;;;;6242237;23;20027;-88
2022/11/10 07:40:55;;;;;;;31.63;18.20;;;;;;;;;;6264210;22;20066;-88
2022/11/10 07:43:39;;;;;;;31.00;18.35;;;;;;;;;;6264261;22;20355;-88
2022/11/10 07:46:23;;;;;;;31.10;19.25;;;;;;;;;;6264681;22;20479;-87
2022/11/10 07:49:07;;;;;;;29.70;19.17;;;;;;;;;;6264375;22;20336;-87
2022/11/10 07:51:51;;;;;;;29.15;17.80;;;;;;;;;;6242880;23;20023;-88
2022/11/10 07:54:35;;;;;;;32.53;19.80;;;;;;;;;;6264166;22;20023;-88
2022/11/10 07:57:19;;;;;;;28.90;18.60;;;;;;;;;;6241996;22;20345;-87
2022/11/10 08:00:03;;;;;;;32.20;19.35;;;;;;;;;;6241987;23;20031;-88
2022/11/10 08:02:48;;;;;;;32.53;19.67;;;;;;;;;;6242024;23;20023;-88
2022/11/10 08:05:32;;;;;;;31.85;19.85;;;;;;;;;;6264328;22;20023;-87
2022/11/10 08:08:16;;;;;;;31.77;19.27;;;;;;;;;;6263706;22;20397;-88
2022/11/10 08:10:59;;;;;;;32.13;20.50;;;;;;;;;;6264263;22;20356;-88
2022/11/10 08:13:43;;;;;;;33.45;19.35;;;;;;;;;;6264426;22;20547;-88
2022/11/10 08:16:27;;;;;;;30.88;18.92;;;;;;;;;;6266192;22;20081;-87
2022/11/10 08:19:11;;;;;;;31.40;19.70;;;;;;;;;;6265780;22;20026;-87
2022/11/10 08:21:55;;;;;;;27.70;17.60;;;;;;;;;;6265656;22;20077;-87
2022/11/10 08:24:39;;;;;;;27.52;17.60;;;;;;;;;;6265579;22;20108;-88
2022/11/10 08:27:23;;;;;;;29.92;19.38;;;;;;;;;;6265728;22;20047;-86
2022/11/10 08:30:07;;;;;;;28.00;18.75;;;;;;;;;;6244039;23;20539;-88
2022/11/10 08:32:55;;;;;;;30.65;19.17;;;;;;;;;;6265475;22;20360;-88
2022/11/10 08:35:40;;;;;;;28.52;18.67;;;;;;;;;;6265205;22;20320;-87
2022/11/10 08:38:24;;;;;;;30.85;17.73;;;;;;;;;;6243946;23;20101;-87
2022/11/10 08:41:08;;;;;;;27.63;18.45;;;;;;;;;;6265489;22;20363;-88
2022/11/10 08:43:52;;;;;;;28.83;18.17;;;;;;;;;;6265521;22;20023;-87
2022/11/10 08:46:36;;;;;;;27.75;19.42;;;;;;;;;;6244697;23;20355;-88
2022/11/10 08:49:21;;;;;;;28.50;19.15;;;;;;;;;;6265691;22;20027;-89
2022/11/10 08:52:05;;;;;;;29.77;19.48;;;;;;;;;;6265626;22;20023;-88
2022/11/10 08:54:49;;;;;;;30.42;19.75;;;;;;;;;;6265749;22;20027;-87
2022/11/10 08:57:32;;;;;;;27.58;18.30;;;;;;;;;;6265677;22;20336;-88
2022/11/10 09:00:17;;;;;;;29.08;19.17;;;;;;;;;;6243704;23;20047;-87
2022/11/10 09:03:09;;;;;;;28.63;18.67;;;;;;;;;;6265992;22;20593;-88
2022/11/10 09:05:53;;;;;;;29.42;19.23;;;;;;;;;;6265550;22;20419;-88
2022/11/10 09:08:37;;;;;;;30.95;19.58;;;;;;;;;;6266115;22;20122;-88
2022/11/10 09:11:20;;;;;;;27.25;18.58;;;;;;;;;;6244813;23;20360;-88
2022/11/10 09:14:04;;;;;;;32.78;21.13;;;;;;;;;;6266374;22;20026;-89
2022/11/10 09:16:48;;;;;;;28.33;18.35;;;;;;;;;;6266448;22;20054;-86
2022/11/10 09:19:32;;;;;;;30.73;19.05;;;;;;;;;;6266022;22;20023;-87
2022/11/10 09:22:16;;;;;;;29.42;19.75;;;;;;;;;;6265998;22;20506;-88
2022/11/10 09:25:00;;;;;;;29.48;19.35;;;;;;;;;;6264949;22;20019;-87
2022/11/10 09:27:44;;;;;;;29.23;18.50;;;;;;;;;;6265438;22;20019;-88
2022/11/10 09:30:28;;;;;;;29.33;19.30;;;;;;;;;;6244561;23;20027;-88
2022/11/10 09:33:12;;;;;;;30.85;19.92;;;;;;;;;;6265728;22;20517;-88
2022/11/10 09:35:57;;;;;;;28.77;18.65;;;;;;;;;;6266116;22;20026;-88
2022/11/10 09:38:41;;;;;;;30.75;19.23;;;;;;;;;;6266118;22;20042;-87
2022/11/10 09:41:28;;;;;;;31.20;18.95;;;;;;;;;;6265967;22;20058;-89
2022/11/10 09:44:15;;;;;;;31.25;20.60;;;;;;;;;;6265906;22;20042;-89
2022/11/10 09:47:00;;;;;;;28.20;19.25;;;;;;;;;;6266614;22;20039;-89
2022/11/10 09:49:45;;;;;;;28.83;18.48;;;;;;;;;;6265867;22;20409;-88
2022/11/10 09:52:30;;;;;;;25.13;17.92;;;;;;;;;;6265166;22;20042;-89
2022/11/10 09:55:40;;;;;;;25.08;17.23;;;;;;;;;;6266090;22;20023;-89
2022/11/10 09:58:26;;;;;;;27.98;16.00;;;;;;;;;;6244224;22;20357;-87
2022/11/10 10:01:16;;;;;;;23.50;16.58;;;;;;;;;;6265173;22;20058;-88
2022/11/10 10:04:10;;;;;;;24.23;17.35;;;;;;;;;;6265874;22;20019;-89
2022/11/10 10:07:07;;;;;;;26.00;18.00;;;;;;;;;;6266826;22;20047;-85
2022/11/10 10:10:10;;;;;;;23.98;16.85;;;;;;;;;;6266477;22;20051;-88
2022/11/10 10:13:07;;;;;;;22.40;16.42;;;;;;;;;;6267501;22;20023;-89
2022/11/10 10:15:54;;;;;;;24.05;16.75;;;;;;;;;;6267557;22;20480;-89
2022/11/10 10:18:47;;;;;;;27.77;17.50;;;;;;;;;;6267564;22;20066;-89
2022/11/10 10:21:36;;;;;;;22.85;16.42;;;;;;;;;;6266381;22;20118;-88
2022/11/10 10:24:20;;;;;;;22.83;15.80;;;;;;;;;;6267140;22;20023;-89
2022/11/10 10:27:05;;;;;;;23.23;15.77;;;;;;;;;;6266443;22;20105;-88
2022/11/10 10:29:49;;;;;;;28.55;17.30;;;;;;;;;;6266442;22;20023;-89
2022/11/10 10:32:32;;;;;;;25.48;18.50;;;;;;;;;;6245115;23;20517;-89
2022/11/10 10:35:16;;;;;;;25.67;17.42;;;;;;;;;;6267098;22;20500;-89
2022/11/10 10:38:00;;;;;;;27.83;18.05;;;;;;;;;;6244605;23;20050;-90
2022/11/10 10:40:44;;;;;;;25.95;18.15;;;;;;;;;;6266926;22;20023;-88
2022/11/10 10:43:28;;;;;;;28.38;19.00;;;;;;;;;;6266384;22;20471;-88
2022/11/10 10:46:14;;;;;;;25.33;17.25;;;;;;;;;;6266503;22;20067;-87
2022/11/10 10:49:04;;;;;;;28.40;19.97;;;;;;;;;;6266502;22;20022;-88
2022/11/10 10:51:50;;;;;;;28.20;19.90;;;;;;;;;;6267149;22;20034;-87
2022/11/10 10:54:34;;;;;;;30.48;19.95;;;;;;;;;;6244932;23;20023;-90
2022/11/10 10:57:27;;;;;;;26.90;18.42;;;;;;;;;;6265658;22;20023;-87
2022/11/10 11:00:19;;;;;;;28.70;20.10;;;;;;;;;;6274536;22;20030;-88
2022/11/10 11:03:04;;;;;;;29.13;19.60;;;;;;;;;;6277481;22;20485;-90
2022/11/10 11:06:01;;;;;;;29.02;19.77;;;;;;;;;;6275915;22;20038;-89
2022/11/10 11:08:55;;;;;;;30.55;19.83;;;;;;;;;;6275097;22;20019;-88
2022/11/10 11:11:39;;;;;;;30.98;20.52;;;;;;;;;;6276668;22;20478;-89
2022/11/10 11:14:24;;;;;;;28.35;19.35;;;;;;;;;;6275670;22;20096;-90
2022/11/10 11:17:12;;;;;;;30.48;20.25;;;;;;;;;;6275057;22;20026;-90
2022/11/10 11:19:56;;;;;;;31.92;20.48;;;;;;;;;;6274513;22;20023;-87
2022/11/10 11:22:44;;;;;;;30.25;21.23;;;;;;;;;;6275348;22;20042;-90
2022/11/10 11:25:31;;;;;;;35.72;24.05;;;;;;;;;;6277253;22;20030;-89
2022/11/10 11:28:21;;;;;;;37.92;23.20;;;;;;;;;;6274840;22;20023;-88
2022/11/10 11:31:09;;;;;;;33.80;23.33;;;;;;;;;;6253068;22;20037;-89
2022/11/10 11:33:56;;;;;;;32.45;22.33;;;;;;;;;;6274752;22;20478;-89
2022/11/10 11:36:40;;;;;;;;;;;;;;;;;;6253727;22;20406;-88
2022/11/10 11:39:47;;;;;;;34.03;21.85;;;;;;;;;;6253404;22;19918;-87
2022/11/10 11:42:34;;;;;;;33.35;21.35;;;;;;;;;;6274799;22;20529;-88
2022/11/10 11:45:24;;;;;;;34.20;21.70;;;;;;;;;;6253512;22;20023;-87
2022/11/10 11:48:14;;;;;;;34.40;22.50;;;;;;;;;;6275327;22;20026;-88
2022/11/10 11:51:00;;;;;;;33.63;22.23;;;;;;;;;;6254075;22;20111;-90
2022/11/10 11:54:02;;;;;;;30.35;21.58;;;;;;;;;;6275768;22;20077;-88
2022/11/10 11:56:48;;;;;;;34.47;22.15;;;;;;;;;;6277490;22;20026;-89
2022/11/10 11:59:36;;;;;;;33.10;22.10;;;;;;;;;;6276417;22;20031;-90
2022/11/10 12:02:36;;;;;;;32.08;21.80;;;;;;;;;;6275804;22;20066;-90
2022/11/10 12:05:42;;;;;;;33.20;21.35;;;;;;;;;;6275916;22;20069;-88
2022/11/10 12:08:45;;;;;;;32.85;21.73;;;;;;;;;;6253859;22;20022;-88
2022/11/10 12:11:39;;;;;;;32.22;21.27;;;;;;;;;;6253850;22;20359;-88
2022/11/10 12:14:31;;;;;;;37.40;22.75;;;;;;;;;;6275093;22;20026;-89
2022/11/10 12:17:15;;;;;;;33.85;22.95;;;;;;;;;;6276486;22;20027;-89
2022/11/10 12:20:17;;;;;;;37.40;23.92;;;;;;;;;;6253637;22;20053;-87
2022/11/10 12:23:13;;;;;;;34.95;22.33;;;;;;;;;;6276654;22;20546;-87
2022/11/10 12:26:16;;;;;;;34.50;22.83;;;;;;;;;;6277130;22;20069;-87
2022/11/10 12:29:02;;;;;;;36.60;23.13;;;;;;;;;;6254967;22;20021;-89
2022/11/10 12:31:46;;;;;;;39.08;23.67;;;;;;;;;;6275810;22;20482;-90
2022/11/10 12:34:41;;;;;;;40.08;23.85;;;;;;;;;;6275530;22;20027;-88
2022/11/10 12:37:34;;;;;;;39.55;23.83;;;;;;;;;;6275691;22;20071;-88
2022/11/10 12:40:19;;;;;;;42.60;25.02;;;;;;;;;;6275191;22;20070;-88
2022/11/10 12:43:27;;;;;;;40.03;24.63;;;;;;;;;;6276005;22;20019;-88
2022/11/10 12:46:11;;;;;;;39.60;24.13;;;;;;;;;;6253039;22;20066;-89
2022/11/10 12:48:54;;;;;;;44.05;24.25;;;;;;;;;;6277058;22;20018;-90
2022/11/10 12:51:44;;;;;;;46.20;25.70;;;;;;;;;;6277927;22;20022;-89
2022/11/10 12:54:29;;;;;;;42.53;24.63;;;;;;;;;;6275860;22;20027;-90
2022/11/10 12:57:13;;;;;;;42.63;24.63;;;;;;;;;;6276716;22;20072;-90
2022/11/10 12:59:57;;;;;;;44.67;25.13;;;;;;;;;;6251946;22;20419;-87
2022/11/10 13:02:42;;;;;;;44.58;25.75;;;;;;;;;;6225305;23;20019;-87
2022/11/10 13:05:27;;;;;;;41.50;24.60;;;;;;;;;;6225207;23;20023;-88
2022/11/10 13:08:14;;;;;;;45.25;25.25;;;;;;;;;;6224765;23;20047;-89
2022/11/10 13:11:03;;;;;;;42.90;26.13;;;;;;;;;;6248217;23;20517;-87
2022/11/10 13:13:51;;;;;;;40.92;23.92;;;;;;;;;;6224501;23;20100;-89
2022/11/10 13:16:43;;;;;;;43.83;26.55;;;;;;;;;;6225828;23;20517;-88
2022/11/10 13:19:28;;;;;;;39.65;24.67;;;;;;;;;;6224122;23;20051;-89
2022/11/10 13:22:27;;;;;;;40.88;24.88;;;;;;;;;;6247567;23;20018;-88
2022/11/10 13:25:29;;;;;;;41.92;26.10;;;;;;;;;;6225586;23;20019;-89
2022/11/10 13:28:13;;;;;;;43.80;24.02;;;;;;;;;;6247418;23;20211;-88
2022/11/10 13:30:57;;;;;;;45.03;24.92;;;;;;;;;;6246176;23;20062;-87
2022/11/10 13:33:41;;;;;;;43.47;24.67;;;;;;;;;;6248201;23;20046;-89
2022/11/10 13:36:38;;;;;;;42.13;25.35;;;;;;;;;;6247338;23;20051;-87
2022/11/10 13:39:23;;;;;;;45.17;26.50;;;;;;;;;;6225904;23;20027;-88
2022/11/10 13:42:07;;;;;;;49.25;26.00;;;;;;;;;;6246292;23;20281;-88
2022/11/10 13:44:52;;;;;;;41.65;26.30;;;;;;;;;;6225302;23;20395;-89
2022/11/10 13:47:51;;;;;;;49.67;27.80;;;;;;;;;;6246301;23;20130;-90
2022/11/10 13:50:38;;;;;;;47.00;26.17;;;;;;;;;;6246453;23;20046;-89
2022/11/10 13:53:22;;;;;;;;;;;;;;;;;;6249068;23;20470;-88
2022/11/10 13:56:06;;;;;;;49.67;27.70;;;;;;;;;;6248070;23;19953;-90
2022/11/10 13:58:50;;;;;;;48.53;27.55;;;;;;;;;;6225294;23;20031;-89
2022/11/10 14:01:34;;;;;;;46.80;27.42;;;;;;;;;;6268109;22;20505;-88
2022/11/10 14:04:45;;;;;;;47.00;26.10;;;;;;;;;;6268087;22;20479;-88
2022/11/10 14:07:30;;;;;;;47.70;27.42;;;;;;;;;;6246693;23;20196;-88
2022/11/10 14:10:17;;;;;;;46.67;27.48;;;;;;;;;;6268004;22;20103;-87
2022/11/10 14:13:06;;;;;;;57.83;27.80;;;;;;;;;;6267553;22;20475;-88
2022/11/10 14:15:50;;;;;;;44.50;26.83;;;;;;;;;;6267788;22;20027;-88
2022/11/10 14:18:38;;;;;;;49.67;27.50;;;;;;;;;;6268514;22;20050;-88
2022/11/10 14:21:34;;;;;;;48.00;29.10;;;;;;;;;;6266973;22;20026;-87
2022/11/10 14:24:19;;;;;;;51.28;29.13;;;;;;;;;;6268248;22;20023;-90
2022/11/10 14:27:07;;;;;;;53.80;29.85;;;;;;;;;;6268571;22;20042;-90
2022/11/10 14:30:03;;;;;;;55.15;32.92;;;;;;;;;;6268804;22;20517;-87
2022/11/10 14:32:57;;;;;;;53.30;30.67;;;;;;;;;;6246880;23;20081;-87
2022/11/10 14:35:48;;;;;;;57.50;32.42;;;;;;;;;;6269205;22;20031;-88
2022/11/10 14:38:34;;;;;;;53.63;28.90;;;;;;;;;;6269602;22;20074;-90
2022/11/10 14:41:19;;;;;;;61.55;32.50;;;;;;;;;;6268005;22;20031;-88
2022/11/10 14:44:04;;;;;;;44.03;27.73;;;;;;;;;;6268504;22;20019;-90
2022/11/10 14:46:48;;;;;;;49.33;29.35;;;;;;;;;;6268238;22;20026;-87
2022/11/10 14:49:32;;;;;;;45.70;27.70;;;;;;;;;;6268352;22;20483;-89
2022/11/10 14:52:15;;;;;;;49.50;29.17;;;;;;;;;;6268946;22;20027;-88
2022/11/10 14:55:00;;;;;;;45.53;27.73;;;;;;;;;;6268383;22;20494;-88
2022/11/10 14:57:48;;;;;;;42.05;26.73;;;;;;;;;;6267157;22;20398;-90
2022/11/10 15:00:33;;;;;;;41.63;26.40;;;;;;;;;;6268116;22;20159;-88
2022/11/10 15:03:29;;;;;;;42.55;25.85;;;;;;;;;;6267368;22;20023;-88
2022/11/10 15:06:13;;;;;;;46.60;25.83;;;;;;;;;;6268101;22;20517;-88
2022/11/10 15:08:57;;;;;;;40.30;25.77;;;;;;;;;;6268154;22;20115;-87
2022/11/10 15:12:00;;;;;;;40.70;25.30;;;;;;;;;;6267474;22;20071;-87
2022/11/10 15:14:44;;;;;;;41.05;24.45;;;;;;;;;;6246844;23;20039;-90
2022/11/10 15:17:47;;;;;;;41.58;25.95;;;;;;;;;;6267999;22;20031;-87
2022/11/10 15:20:33;;;;;;;39.33;24.70;;;;;;;;;;6267747;22;20052;-87
2022/11/10 15:23:21;;;;;;;35.50;23.00;;;;;;;;;;6266635;22;20409;-88
2022/11/10 15:26:06;;;;;;;38.20;23.58;;;;;;;;;;6268507;22;20047;-87
2022/11/10 15:28:50;;;;;;;36.95;22.88;;;;;;;;;;6266781;22;20019;-88
2022/11/10 15:31:35;;;;;;;34.72;22.27;;;;;;;;;;6246104;23;20034;-89
2022/11/10 15:34:39;;;;;;;35.78;23.40;;;;;;;;;;6267344;22;20027;-88
2022/11/10 15:37:27;;;;;;;37.15;23.05;;;;;;;;;;6244478;23;20023;-88
2022/11/10 15:40:29;;;;;;;35.25;22.48;;;;;;;;;;6267552;22;20023;-88
2022/11/10 15:43:14;;;;;;;33.45;22.88;;;;;;;;;;6246288;23;20078;-88
2022/11/10 15:46:01;;;;;;;36.80;22.48;;;;;;;;;;6267540;22;20027;-88
2022/11/10 15:48:46;;;;;;;32.22;21.98;;;;;;;;;;6266822;22;20067;-89
2022/11/10 15:51:30;;;;;;;33.72;20.50;;;;;;;;;;6267554;22;20455;-89
2022/11/10 15:54:14;;;;;;;32.58;22.20;;;;;;;;;;6247196;23;20471;-88
2022/11/10 15:56:58;;;;;;;34.38;22.35;;;;;;;;;;6268403;22;20023;-89
2022/11/10 15:59:42;;;;;;;34.22;21.67;;;;;;;;;;6246444;22;20432;-88
2022/11/10 16:02:26;;;;;;;31.70;21.05;;;;;;;;;;6244734;23;20051;-88
2022/11/10 16:05:10;;;;;;;31.00;20.65;;;;;;;;;;6267115;22;20138;-87
2022/11/10 16:07:55;;;;;;;33.15;21.17;;;;;;;;;;6246304;23;20474;-90
2022/11/10 16:10:40;;;;;;;32.42;21.23;;;;;;;;;;6266663;22;20078;-87
2022/11/10 16:13:25;;;;;;;31.23;20.20;;;;;;;;;;6244691;23;20027;-88
2022/11/10 16:16:10;;;;;;;32.13;20.80;;;;;;;;;;6266867;22;20066;-87
2022/11/10 16:18:54;;;;;;;32.13;21.38;;;;;;;;;;6267102;22;20023;-89
2022/11/10 16:21:38;;;;;;;31.85;21.73;;;;;;;;;;6245724;23;20062;-88